Hauptseite
METAR-TAF:

METAR-TAF

Flughäfen :

Flughafen Singapur

Singapur, Singapur

Breite: 01-22N, Länge: 103-59E, Höhe: 5 m

Beobachtung

Neuester Wetterbericht von vor 27 Minuten, um 06:30 UTC
Wind 12 kt aus Süd
Temperatur 33°C
Luftfeuchtigkeit 67%
Luftdruck 1007 hPa
Sichtweite 10 km oder mehr
Leicht bewölkt in der Höhe von 2000 ft
Durchbrochene Bewölkung in der Höhe von 30000 ft

METAR: WSSS 240630Z 17012KT 9999 FEW020 BKN300 33/26 Q1007 NOSIG

Zeit: 14:57 (06:57 UTC)

Prognose

Neuester Wetterbericht von vor 1 Stunde und 57 Minuten, um 05:00 UTC
Gültige Prognose vom 24 um 06 UTC bis 25 um 12 UTC
Wind 10 kt aus Süd
Sichtweite 10 km oder mehr
Leicht bewölkt in der Höhe von 1500 ft
Aufgelockert bewölkt in der Höhe von 2000 ft

TAF: WSSS 240500Z 2406/2512 17010KT 9999 FEW015 SCT020

Wetterbeobachtungen und Prognosen von mehr als 4000 Flughäfen (METAR und TAF Bericht).

Die verfügbaren Stationen werden durch gelbe und rote Markierungen auf der Karte dargestellt.

Führen Sie die Maus auf sie, um den Namen der Station zu sehen.

Darauf klicken, um die Beobachtung von Wetterbeobachtungen und Prognosen zu sehen.

Um die Karte zu ändern : klicken Sie auf den grünen Tasten mit einem schwarzen Kreuz Zum Vergrößern, auf den grünen Button mit einem Gedankenstrich zu verkleinern, oder auf die grünen Pfeile für benachbarte Karten.


METAR-TAF: